Time;durP1;ratioP1;P1;durP2;ratioP2;P2;SDS_P1;SDS_P2;PMS_P1;PMS_P2;Temp;Humidity;BMP_temperature;BMP_pressure;BME280_temperature;BME280_humidity;BME280_pressure;Samples;Min_cycle;Max_cycle;Signal;HPM_P1;HPM_P2
2021/08/28 00:02:04;;;;;;;2.60;1.48;;;16.70;70.90;;;;;;5041736;28;20044;-78
2021/08/28 00:04:34;;;;;;;2.65;1.40;;;16.50;71.40;;;;;;5048656;28;20025;-78
2021/08/28 00:07:00;;;;;;;3.13;1.45;;;16.50;71.50;;;;;;5052810;28;20025;-79
2021/08/28 00:09:26;;;;;;;4.90;1.65;;;16.60;71.10;;;;;;5038169;28;20040;-79
2021/08/28 00:11:52;;;;;;;4.32;1.63;;;16.50;71.50;;;;;;5038046;28;20029;-78
2021/08/28 00:14:18;;;;;;;4.47;1.55;;;16.50;71.00;;;;;;5037884;28;20029;-78
2021/08/28 00:16:43;;;;;;;2.88;1.55;;;16.50;71.40;;;;;;5037918;28;20032;-78
2021/08/28 00:19:09;;;;;;;3.72;1.42;;;16.40;71.70;;;;;;5057855;28;20076;-79
2021/08/28 00:21:37;;;;;;;3.97;1.77;;;16.40;71.40;;;;;;5047499;28;20084;-79
2021/08/28 00:24:03;;;;;;;2.33;1.67;;;16.50;71.20;;;;;;5037713;28;20053;-79
2021/08/28 00:26:29;;;;;;;4.93;1.70;;;16.50;71.10;;;;;;5037789;28;20487;-78
2021/08/28 00:28:55;;;;;;;4.90;1.42;;;16.40;71.00;;;;;;5037522;28;20025;-79
2021/08/28 00:31:21;;;;;;;5.60;2.20;;;16.50;70.80;;;;;;5036874;28;20400;-78
2021/08/28 00:33:47;;;;;;;2.88;1.73;;;16.30;71.00;;;;;;5052611;28;20079;-78
2021/08/28 00:36:13;;;;;;;3.92;2.10;;;16.30;71.00;;;;;;5036176;28;20033;-79
2021/08/28 00:38:41;;;;;;;4.63;1.70;;;16.30;71.20;;;;;;5049768;28;20032;-78
2021/08/28 00:41:07;;;;;;;2.75;1.50;;;16.30;71.10;;;;;;5067638;28;20410;-78
2021/08/28 00:43:32;;;;;;;4.13;1.63;;;16.30;71.10;;;;;;5045433;28;20029;-79
2021/08/28 00:45:59;;;;;;;2.75;1.60;;;16.20;71.20;;;;;;5037308;28;20021;-79
2021/08/28 00:48:25;;;;;;;2.60;1.38;;;16.20;71.40;;;;;;5037290;28;20057;-79
2021/08/28 00:50:51;;;;;;;3.20;1.67;;;16.20;71.60;;;;;;5037313;28;20053;-79
2021/08/28 00:53:17;;;;;;;3.88;1.85;;;16.10;71.60;;;;;;5037144;28;20034;-78
2021/08/28 00:55:47;;;;;;;2.17;1.50;;;16.10;71.60;;;;;;5037064;28;20471;-78
2021/08/28 00:58:14;;;;;;;3.50;1.55;;;16.10;71.40;;;;;;5037153;28;20056;-79
2021/08/28 01:01:25;;;;;;;3.92;1.50;;;16.10;71.20;;;;;;5037145;28;20029;-78
2021/08/28 01:03:57;;;;;;;3.70;1.67;;;16.10;71.80;;;;;;5052181;28;20097;-78
2021/08/28 01:06:41;;;;;;;3.63;1.55;;;16.00;71.80;;;;;;5035813;28;20053;-79
2021/08/28 01:09:29;;;;;;;3.05;1.45;;;16.00;71.80;;;;;;5036956;28;20026;-79
2021/08/28 01:12:13;;;;;;;4.35;1.75;;;16.00;71.70;;;;;;5036910;28;20025;-78
2021/08/28 01:14:44;;;;;;;3.08;1.67;;;15.90;72.00;;;;;;5036800;28;20030;-78
2021/08/28 01:17:13;;;;;;;2.72;1.50;;;15.90;72.10;;;;;;5036714;28;20070;-78
2021/08/28 01:19:58;;;;;;;3.83;1.42;;;15.90;72.20;;;;;;5036683;28;20029;-79
2021/08/28 01:22:24;;;;;;;3.53;1.92;;;15.80;72.70;;;;;;5051875;28;20037;-79
2021/08/28 01:24:50;;;;;;;4.35;1.90;;;15.80;72.70;;;;;;5043584;28;20115;-79
2021/08/28 01:27:26;;;;;;;1.70;1.27;;;15.80;73.20;;;;;;5051199;28;21230;-79
2021/08/28 01:29:52;;;;;;;3.08;1.90;;;15.70;73.30;;;;;;5036616;28;20502;-79
2021/08/28 01:32:20;;;;;;;3.63;1.50;;;15.80;72.60;;;;;;5036590;28;20070;-79
2021/08/28 01:34:46;;;;;;;5.38;1.95;;;15.80;72.90;;;;;;5047081;28;20028;-78
2021/08/28 01:37:13;;;;;;;3.08;1.70;;;15.80;72.60;;;;;;5036517;28;20033;-78
2021/08/28 01:39:40;;;;;;;3.00;1.83;;;15.80;72.50;;;;;;5036276;28;20021;-78
2021/08/28 01:42:07;;;;;;;3.10;1.25;;;15.80;72.00;;;;;;5065992;28;20102;-78
2021/08/28 01:44:34;;;;;;;2.60;1.35;;;15.70;72.40;;;;;;5056353;28;20017;-78
2021/08/28 01:47:02;;;;;;;1.88;1.25;;;15.70;72.30;;;;;;5056044;28;20077;-78
2021/08/28 01:49:29;;;;;;;3.30;1.50;;;15.70;72.50;;;;;;5056249;28;20019;-78
2021/08/28 01:51:54;;;;;;;4.35;1.73;;;15.60;72.50;;;;;;5042570;28;20037;-78
2021/08/28 01:54:21;;;;;;;3.60;2.03;;;15.60;72.50;;;;;;5036191;28;20025;-79
2021/08/28 01:56:46;;;;;;;2.97;1.75;;;15.50;72.70;;;;;;5036411;28;20479;-78
2021/08/28 01:59:13;;;;;;;3.20;1.60;;;15.60;72.90;;;;;;5035823;28;20017;-78
2021/08/28 02:01:39;;;;;;;5.55;1.63;;;15.50;72.70;;;;;;5036036;28;20028;-78
2021/08/28 02:04:08;;;;;;;3.10;1.67;;;15.50;72.50;;;;;;5034782;28;20025;-79
2021/08/28 02:06:36;;;;;;;2.17;1.50;;;15.50;72.60;;;;;;5035861;28;20029;-78
2021/08/28 02:09:23;;;;;;;4.60;1.80;;;15.50;72.40;;;;;;5035665;28;20026;-79
2021/08/28 02:11:58;;;;;;;2.88;1.85;;;15.40;72.70;;;;;;5051376;28;20120;-78
2021/08/28 02:14:38;;;;;;;4.38;1.77;;;15.30;72.70;;;;;;5051291;28;20583;-78
2021/08/28 02:17:08;;;;;;;2.72;1.42;;;15.30;73.50;;;;;;5035793;28;20033;-78
2021/08/28 02:19:35;;;;;;;;;;;15.30;73.70;;;;;;5035087;28;20125;-78
2021/08/28 02:22:10;;;;;;;3.20;1.50;;;15.30;73.80;;;;;;5034171;28;20466;-79
2021/08/28 02:24:36;;;;;;;3.28;1.70;;;15.40;73.70;;;;;;5034213;28;20028;-79
2021/08/28 02:27:13;;;;;;;3.97;1.60;;;15.30;73.60;;;;;;5035376;28;20088;-78
2021/08/28 02:30:09;;;;;;;2.88;1.55;;;15.30;73.80;;;;;;5050415;28;20018;-79
2021/08/28 02:32:36;;;;;;;3.70;1.90;;;15.30;73.70;;;;;;5038962;28;20041;-78
2021/08/28 02:35:04;;;;;;;4.03;1.90;;;15.40;73.80;;;;;;5035580;28;20037;-78
2021/08/28 02:37:33;;;;;;;5.53;2.30;;;15.40;73.80;;;;;;5035415;28;20029;-78
2021/08/28 02:40:01;;;;;;;3.40;1.90;;;15.40;73.60;;;;;;5051900;28;20040;-78
2021/08/28 02:42:27;;;;;;;4.45;1.75;;;15.30;73.80;;;;;;5075192;28;20028;-78
2021/08/28 02:44:54;;;;;;;4.47;1.70;;;15.30;73.80;;;;;;5053712;28;20034;-78
2021/08/28 02:47:22;;;;;;;3.70;1.92;;;15.30;73.70;;;;;;5033882;28;20034;-78
2021/08/28 02:49:55;;;;;;;4.72;1.90;;;15.30;74.00;;;;;;5035255;28;20064;-79
2021/08/28 02:52:23;;;;;;;4.63;1.92;;;15.20;73.90;;;;;;5034981;28;20083;-78
2021/08/28 02:54:50;;;;;;;2.78;1.65;;;15.20;74.10;;;;;;5035168;28;20021;-78
2021/08/28 02:57:17;;;;;;;4.18;1.88;;;15.20;74.00;;;;;;5035096;28;20083;-78
2021/08/28 02:59:43;;;;;;;4.53;2.22;;;15.20;74.30;;;;;;5052347;28;20108;-78
2021/08/28 03:02:09;;;;;;;3.30;1.80;;;15.20;74.20;;;;;;5054985;28;20053;-78
2021/08/28 03:04:36;;;;;;;3.05;1.80;;;15.20;74.40;;;;;;5055020;28;20031;-78
2021/08/28 03:07:05;;;;;;;3.08;1.48;;;15.20;74.20;;;;;;5052399;28;22128;-78
2021/08/28 03:09:31;;;;;;;4.35;2.00;;;15.20;74.20;;;;;;5035230;28;20041;-78
2021/08/28 03:11:58;;;;;;;4.32;2.10;;;15.10;74.70;;;;;;5034930;28;20100;-78
2021/08/28 03:14:25;;;;;;;4.63;2.70;;;15.10;74.70;;;;;;5035042;28;20028;-78
2021/08/28 03:16:52;;;;;;;2.70;2.00;;;15.00;74.70;;;;;;5041493;28;20063;-78
2021/08/28 03:19:23;;;;;;;2.90;1.95;;;15.00;74.40;;;;;;5055010;28;20539;-78
2021/08/28 03:21:50;;;;;;;5.57;2.00;;;15.00;74.30;;;;;;5052721;28;20117;-78
2021/08/28 03:24:20;;;;;;;2.60;1.67;;;15.00;74.60;;;;;;5054768;28;20423;-78
2021/08/28 03:26:46;;;;;;;;;;;15.00;74.50;;;;;;5042891;28;20030;-78
2021/08/28 03:29:43;;;;;;;;;;;;;;;;;;;;;
2021/08/28 03:32:10;;;;;;;3.13;1.88;;;15.00;74.40;;;;;;5045219;28;20041;-78
2021/08/28 03:34:36;;;;;;;3.25;2.50;;;15.10;74.50;;;;;;5054788;28;20116;-78
2021/08/28 03:37:03;;;;;;;2.90;1.83;;;15.00;74.40;;;;;;5053588;28;20602;-78
2021/08/28 03:39:29;;;;;;;2.50;1.98;;;15.00;74.30;;;;;;5052456;28;20032;-78
2021/08/28 03:41:55;;;;;;;5.22;2.08;;;15.00;74.40;;;;;;5072083;28;20037;-78
2021/08/28 03:44:21;;;;;;;3.90;1.85;;;15.00;74.70;;;;;;5072987;28;20025;-78
2021/08/28 03:46:57;;;;;;;4.88;2.00;;;15.00;74.50;;;;;;5038532;28;20088;-78
2021/08/28 03:49:22;;;;;;;3.83;1.60;;;15.00;74.40;;;;;;5038469;28;20075;-78
2021/08/28 03:51:48;;;;;;;2.78;1.80;;;15.00;74.40;;;;;;5036725;28;20112;-78
2021/08/28 03:54:13;;;;;;;3.95;2.10;;;14.90;75.00;;;;;;5038439;28;20037;-78
2021/08/28 03:56:39;;;;;;;2.70;1.70;;;14.80;74.90;;;;;;5038178;28;20032;-78
2021/08/28 03:59:05;;;;;;;2.90;1.88;;;14.80;75.00;;;;;;5038241;28;20029;-78
2021/08/28 04:01:30;;;;;;;3.75;2.00;;;14.80;75.10;;;;;;5038515;28;20095;-78
2021/08/28 04:03:59;;;;;;;3.13;1.80;;;14.80;75.00;;;;;;5038074;28;20448;-79
2021/08/28 04:06:25;;;;;;;4.55;2.17;;;14.80;75.60;;;;;;5038097;28;20017;-78
2021/08/28 04:08:50;;;;;;;4.40;1.90;;;14.70;75.50;;;;;;5038168;28;20026;-78
2021/08/28 04:11:16;;;;;;;3.45;1.67;;;14.70;75.60;;;;;;5039355;28;20032;-78
2021/08/28 04:13:42;;;;;;;2.55;1.77;;;14.70;75.20;;;;;;5058057;28;20024;-78
2021/08/28 04:16:08;;;;;;;4.38;2.13;;;14.70;75.80;;;;;;5056258;28;20044;-78
2021/08/28 04:18:34;;;;;;;3.47;1.85;;;14.60;75.30;;;;;;5057804;28;20017;-79
2021/08/28 04:20:59;;;;;;;5.03;2.03;;;14.60;75.00;;;;;;5056537;28;20017;-78
2021/08/28 04:23:25;;;;;;;3.88;2.03;;;14.60;75.10;;;;;;5056621;28;20025;-79
2021/08/28 04:25:51;;;;;;;3.10;1.60;;;14.50;75.20;;;;;;5039903;28;20029;-78
2021/08/28 04:28:16;;;;;;;2.53;1.80;;;14.60;75.10;;;;;;5037860;28;20064;-78
2021/08/28 04:30:42;;;;;;;2.90;1.70;;;14.50;75.40;;;;;;5037670;28;20514;-79
2021/08/28 04:33:07;;;;;;;5.03;1.98;;;14.50;75.30;;;;;;5037624;28;20108;-79
2021/08/28 04:35:34;;;;;;;3.33;1.85;;;14.40;75.70;;;;;;5037249;28;20055;-78
2021/08/28 04:38:17;;;;;;;2.53;1.63;;;14.50;75.50;;;;;;5037596;28;20029;-78
2021/08/28 04:40:43;;;;;;;2.70;1.85;;;14.50;75.00;;;;;;5048262;28;20072;-79
2021/08/28 04:43:08;;;;;;;4.50;2.08;;;14.40;75.30;;;;;;5037686;28;20080;-78
2021/08/28 04:45:34;;;;;;;2.38;1.70;;;14.40;75.40;;;;;;5036091;28;20543;-78
2021/08/28 04:48:00;;;;;;;4.30;1.88;;;14.30;75.30;;;;;;5037294;28;20021;-78
2021/08/28 04:50:25;;;;;;;3.47;2.20;;;14.30;75.30;;;;;;5037454;28;20061;-79
2021/08/28 04:52:51;;;;;;;4.38;2.47;;;14.30;75.00;;;;;;5037444;28;20029;-78
2021/08/28 04:55:17;;;;;;;4.50;2.47;;;14.30;76.30;;;;;;5037363;28;20045;-78
2021/08/28 04:57:42;;;;;;;2.13;1.58;;;14.30;76.50;;;;;;5037277;28;20038;-78
2021/08/28 05:00:09;;;;;;;3.55;2.08;;;14.30;76.90;;;;;;5037274;28;20061;-78
2021/08/28 05:02:34;;;;;;;4.22;2.13;;;14.30;76.60;;;;;;5050448;28;20060;-78
2021/08/28 05:05:00;;;;;;;3.13;2.03;;;14.30;76.60;;;;;;5056978;28;20021;-78
2021/08/28 05:07:25;;;;;;;4.75;2.40;;;14.40;76.30;;;;;;5055911;28;20112;-78
2021/08/28 05:09:51;;;;;;;4.18;1.83;;;14.30;76.30;;;;;;5054747;28;20446;-79
2021/08/28 05:12:19;;;;;;;4.25;2.13;;;14.40;76.60;;;;;;5055609;28;20028;-79
2021/08/28 05:14:45;;;;;;;4.93;2.15;;;14.40;75.90;;;;;;5057053;28;20033;-79
2021/08/28 05:17:11;;;;;;;3.20;2.03;;;14.40;76.20;;;;;;5038250;28;20029;-78
2021/08/28 05:19:36;;;;;;;2.72;1.77;;;14.30;77.00;;;;;;5036802;28;20048;-79
2021/08/28 05:22:02;;;;;;;2.58;2.17;;;14.20;76.80;;;;;;5036672;28;20026;-79
2021/08/28 05:24:29;;;;;;;3.10;2.10;;;14.20;76.50;;;;;;5052915;28;20029;-79
2021/08/28 05:26:55;;;;;;;4.90;2.78;;;14.20;76.50;;;;;;5056656;28;20021;-79
2021/08/28 05:29:20;;;;;;;3.45;2.38;;;14.20;76.50;;;;;;5056552;28;20064;-79
2021/08/28 05:31:46;;;;;;;3.20;2.28;;;14.20;76.70;;;;;;5046295;28;20060;-79
2021/08/28 05:34:11;;;;;;;3.00;2.30;;;14.20;76.80;;;;;;5035260;28;20026;-78
2021/08/28 05:36:37;;;;;;;4.15;2.20;;;14.20;77.00;;;;;;5052037;28;20036;-78
2021/08/28 05:39:03;;;;;;;4.75;2.42;;;14.30;77.00;;;;;;5056664;28;20032;-78
2021/08/28 05:41:30;;;;;;;4.68;2.15;;;14.30;76.90;;;;;;5042533;28;20535;-78
2021/08/28 05:43:56;;;;;;;3.45;2.25;;;14.30;77.00;;;;;;5036047;28;20025;-78
2021/08/28 05:46:22;;;;;;;5.55;2.33;;;14.30;77.10;;;;;;5036527;28;20018;-79
2021/08/28 05:48:47;;;;;;;2.88;1.95;;;14.30;77.10;;;;;;5046866;28;20051;-78
2021/08/28 05:51:13;;;;;;;3.83;2.10;;;14.30;76.80;;;;;;5036481;28;20126;-79
2021/08/28 05:53:38;;;;;;;4.22;2.30;;;14.30;76.90;;;;;;5036218;28;20083;-79
2021/08/28 05:56:04;;;;;;;5.32;2.17;;;14.30;76.90;;;;;;5036013;28;20033;-78
2021/08/28 05:58:30;;;;;;;3.78;2.20;;;14.40;76.60;;;;;;5036174;28;20052;-78
2021/08/28 06:00:55;;;;;;;4.32;2.13;;;14.40;76.70;;;;;;5034760;28;20367;-78
2021/08/28 06:03:21;;;;;;;3.70;2.00;;;14.50;76.40;;;;;;5030996;28;20133;-78
2021/08/28 06:05:47;;;;;;;3.17;2.20;;;14.50;76.70;;;;;;5028717;28;20022;-78
2021/08/28 06:08:13;;;;;;;3.55;2.00;;;14.50;76.50;;;;;;5035789;28;20392;-78
2021/08/28 06:10:39;;;;;;;2.60;1.95;;;14.50;76.30;;;;;;5035540;28;20022;-79
2021/08/28 06:13:04;;;;;;;4.93;2.38;;;14.50;77.00;;;;;;5035930;28;20079;-79
2021/08/28 06:15:30;;;;;;;2.92;2.30;;;14.50;76.40;;;;;;5035969;28;20060;-79
2021/08/28 06:17:55;;;;;;;3.10;1.92;;;14.60;76.00;;;;;;5035353;28;20037;-79
2021/08/28 06:20:21;;;;;;;3.03;1.95;;;14.60;75.70;;;;;;5046068;28;20403;-79
2021/08/28 06:22:47;;;;;;;4.13;2.00;;;14.60;75.40;;;;;;5055399;28;20025;-79
2021/08/28 06:25:13;;;;;;;2.88;2.08;;;14.60;75.50;;;;;;5054433;28;20021;-79
2021/08/28 06:27:38;;;;;;;4.00;1.83;;;14.70;75.70;;;;;;5055591;28;20460;-78
2021/08/28 06:30:04;;;;;;;4.63;1.88;;;14.70;75.60;;;;;;5054383;28;20017;-79
2021/08/28 06:32:30;;;;;;;4.38;2.00;;;14.70;75.90;;;;;;5040863;28;20388;-79
2021/08/28 06:34:56;;;;;;;3.92;1.88;;;14.80;76.00;;;;;;5035502;28;20116;-79
2021/08/28 06:37:21;;;;;;;4.63;2.35;;;14.80;75.80;;;;;;5034229;28;20029;-78
2021/08/28 06:39:47;;;;;;;2.80;1.85;;;14.80;75.70;;;;;;5055297;28;20400;-79
2021/08/28 06:42:13;;;;;;;3.83;2.00;;;14.90;75.30;;;;;;5074614;28;20045;-79
2021/08/28 06:44:40;;;;;;;2.90;1.80;;;14.90;76.10;;;;;;5075268;28;20078;-79
2021/08/28 06:47:06;;;;;;;2.60;1.85;;;15.00;76.50;;;;;;5075337;28;20027;-79
2021/08/28 06:49:31;;;;;;;4.10;1.88;;;15.00;76.70;;;;;;5035472;28;20488;-79
2021/08/28 06:51:57;;;;;;;4.28;2.30;;;15.00;76.50;;;;;;5035165;28;20026;-79
2021/08/28 06:54:23;;;;;;;3.72;1.63;;;15.20;76.30;;;;;;5035236;28;20025;-79
2021/08/28 06:56:49;;;;;;;2.30;1.50;;;15.20;76.80;;;;;;5035120;28;20043;-79
2021/08/28 06:59:15;;;;;;;2.30;1.63;;;15.20;76.50;;;;;;5035163;28;20037;-78
2021/08/28 07:01:40;;;;;;;5.00;1.50;;;15.20;76.40;;;;;;5034977;28;20025;-79
2021/08/28 07:04:06;;;;;;;5.57;1.60;;;15.30;76.70;;;;;;5035408;28;20075;-78
2021/08/28 07:06:32;;;;;;;2.50;1.50;;;15.30;76.80;;;;;;5034882;28;20033;-78
2021/08/28 07:08:58;;;;;;;3.15;1.50;;;15.40;76.40;;;;;;5035236;28;20017;-79
2021/08/28 07:11:24;;;;;;;4.22;1.70;;;15.50;76.10;;;;;;5050411;28;20033;-78
2021/08/28 07:13:50;;;;;;;2.50;1.38;;;15.60;75.70;;;;;;5035332;28;20624;-79
2021/08/28 07:16:16;;;;;;;4.00;1.77;;;15.70;75.70;;;;;;5053991;28;20990;-78
2021/08/28 07:18:41;;;;;;;1.63;1.30;;;15.80;75.40;;;;;;5039044;28;20388;-79
2021/08/28 07:21:07;;;;;;;5.50;2.00;;;15.80;74.90;;;;;;5038870;28;20478;-79
2021/08/28 07:23:33;;;;;;;2.90;2.03;;;15.90;74.80;;;;;;5038762;28;20399;-79
2021/08/28 07:25:58;;;;;;;2.47;1.50;;;15.90;74.70;;;;;;5038974;28;20025;-79
2021/08/28 07:28:24;;;;;;;3.58;1.52;;;16.00;74.30;;;;;;5040295;28;20053;-80
2021/08/28 07:30:50;;;;;;;2.75;1.40;;;16.10;74.00;;;;;;5057945;28;20033;-79
2021/08/28 07:33:15;;;;;;;3.33;1.50;;;16.30;73.40;;;;;;5057138;28;20495;-79
2021/08/28 07:35:41;;;;;;;5.25;1.92;;;16.60;72.40;;;;;;5043166;28;20508;-79
2021/08/28 07:38:07;;;;;;;4.72;1.48;;;17.40;70.50;;;;;;5038569;28;20018;-80
2021/08/28 07:40:32;;;;;;;3.20;1.23;;;18.80;66.20;;;;;;5048160;28;20048;-79
2021/08/28 07:42:59;;;;;;;2.92;1.50;;;19.20;64.00;;;;;;5070387;28;20042;-80
2021/08/28 07:45:26;;;;;;;2.42;1.38;;;19.30;63.10;;;;;;5058556;28;20025;-80
2021/08/28 07:47:53;;;;;;;2.63;1.10;;;19.50;62.40;;;;;;5047719;28;20036;-79
2021/08/28 07:50:20;;;;;;;3.65;1.25;;;19.50;61.90;;;;;;5038795;28;20033;-80
2021/08/28 07:52:46;;;;;;;3.30;1.20;;;20.30;60.90;;;;;;5038354;28;20036;-80
2021/08/28 07:55:13;;;;;;;3.10;1.25;;;22.70;54.60;;;;;;5038186;28;20033;-81
2021/08/28 07:57:40;;;;;;;3.20;1.10;;;25.50;48.00;;;;;;5038400;28;20032;-81
2021/08/28 08:00:07;;;;;;;2.60;1.25;;;27.50;43.00;;;;;;5036854;28;20032;-81
2021/08/28 08:02:33;;;;;;;2.97;1.00;;;28.90;39.60;;;;;;5052773;28;20096;-81
2021/08/28 08:04:59;;;;;;;1.95;0.90;;;30.20;37.10;;;;;;5038137;28;20032;-82
2021/08/28 08:07:25;;;;;;;2.65;1.05;;;31.00;35.20;;;;;;5037878;28;20100;-82
2021/08/28 08:09:51;;;;;;;3.13;1.30;;;31.90;34.00;;;;;;5038235;28;20139;-82
2021/08/28 08:12:17;;;;;;;3.15;1.27;;;32.50;32.70;;;;;;5038036;28;20088;-82
2021/08/28 08:14:42;;;;;;;2.13;1.08;;;32.90;32.30;;;;;;5037946;28;20025;-82
2021/08/28 08:17:08;;;;;;;3.05;0.93;;;33.00;31.40;;;;;;5050268;28;20462;-82
2021/08/28 08:19:34;;;;;;;2.95;1.10;;;33.50;30.90;;;;;;5057998;28;20407;-82
2021/08/28 08:21:59;;;;;;;2.78;0.90;;;33.50;30.80;;;;;;5050714;28;20029;-81
2021/08/28 08:24:25;;;;;;;2.53;1.23;;;33.80;30.70;;;;;;5037917;28;20025;-82
2021/08/28 08:26:51;;;;;;;2.53;1.10;;;34.10;28.20;;;;;;5051353;28;20407;-82
2021/08/28 08:29:17;;;;;;;2.38;0.85;;;34.30;29.20;;;;;;5057823;28;20112;-82
2021/08/28 08:31:42;;;;;;;2.72;0.90;;;34.40;29.20;;;;;;5056441;28;20151;-82
2021/08/28 08:34:08;;;;;;;2.47;1.02;;;34.70;28.30;;;;;;5051445;28;20037;-82
2021/08/28 08:36:34;;;;;;;2.97;1.20;;;34.80;28.30;;;;;;5036413;28;20534;-82
2021/08/28 08:38:59;;;;;;;2.60;1.20;;;35.00;28.10;;;;;;5037477;28;20033;-82
2021/08/28 08:41:26;;;;;;;2.58;1.10;;;35.10;27.60;;;;;;5062863;28;20060;-82
2021/08/28 08:43:53;;;;;;;2.17;1.00;;;35.20;27.80;;;;;;5062108;28;20602;-82
2021/08/28 08:46:24;;;;;;;2.22;0.93;;;35.40;28.00;;;;;;5037662;28;20021;-82
2021/08/28 08:48:50;;;;;;;2.42;0.90;;;35.50;27.30;;;;;;5036131;28;20021;-81
2021/08/28 08:51:20;;;;;;;2.95;0.90;;;35.50;28.20;;;;;;5037609;28;20013;-82
2021/08/28 08:53:47;;;;;;;2.25;1.10;;;35.50;27.10;;;;;;5057221;28;20498;-81
2021/08/28 08:56:15;;;;;;;2.15;0.90;;;35.20;27.60;;;;;;5057246;28;20036;-81
2021/08/28 08:58:40;;;;;;;2.00;0.75;;;35.10;26.90;;;;;;5042495;28;20048;-82
2021/08/28 09:01:06;;;;;;;3.42;0.93;;;34.80;27.00;;;;;;5037235;28;20033;-81
2021/08/28 09:03:33;;;;;;;2.83;0.80;;;34.50;27.90;;;;;;5036925;28;20097;-81
2021/08/28 09:05:59;;;;;;;2.65;0.93;;;34.60;26.60;;;;;;5036928;28;20052;-81
2021/08/28 09:08:25;;;;;;;2.38;0.80;;;34.60;27.30;;;;;;5037062;28;20100;-81
2021/08/28 09:10:50;;;;;;;1.77;0.65;;;34.30;27.50;;;;;;5037036;28;20052;-80
2021/08/28 09:13:18;;;;;;;2.42;0.52;;;33.90;26.70;;;;;;5036964;28;20037;-81
2021/08/28 09:15:55;;;;;;;2.42;0.70;;;33.80;28.10;;;;;;5036739;28;20044;-81
2021/08/28 09:18:21;;;;;;;1.95;0.70;;;33.90;27.90;;;;;;5036890;28;20026;-81
2021/08/28 09:20:48;;;;;;;1.55;0.60;;;33.80;27.50;;;;;;5036578;28;20112;-81
2021/08/28 09:23:16;;;;;;;2.17;0.93;;;33.60;27.10;;;;;;5036607;28;20534;-80
2021/08/28 09:25:44;;;;;;;2.10;0.90;;;33.90;28.20;;;;;;5036799;28;20542;-80
2021/08/28 09:28:10;;;;;;;2.28;1.20;;;33.90;28.00;;;;;;5036754;28;20018;-81
2021/08/28 09:30:45;;;;;;;2.15;0.70;;;34.30;26.80;;;;;;5036337;28;20021;-81
2021/08/28 09:33:18;;;;;;;2.95;1.00;;;34.30;27.40;;;;;;5036627;28;20377;-80
2021/08/28 09:35:51;;;;;;;1.85;0.80;;;34.30;26.60;;;;;;5036333;28;20030;-81
2021/08/28 09:38:22;;;;;;;2.00;0.98;;;34.50;26.30;;;;;;5036539;28;20034;-80
2021/08/28 09:40:54;;;;;;;1.88;0.88;;;34.70;27.00;;;;;;5049941;28;20120;-80
2021/08/28 09:43:21;;;;;;;1.52;0.73;;;34.90;26.10;;;;;;5036701;28;20195;-80
2021/08/28 09:45:49;;;;;;;2.40;1.00;;;35.00;26.30;;;;;;5036445;28;20040;-83
2021/08/28 09:48:17;;;;;;;2.90;1.00;;;35.30;26.20;;;;;;5054166;28;20029;-83
2021/08/28 09:50:49;;;;;;;2.15;0.90;;;35.00;26.10;;;;;;5055716;28;20267;-81
2021/08/28 09:53:21;;;;;;;2.45;1.02;;;35.30;26.80;;;;;;5055833;28;20025;-79
2021/08/28 09:56:03;;;;;;;4.00;0.98;;;35.60;25.20;;;;;;5039139;28;20040;-83
2021/08/28 09:58:32;;;;;;;1.50;0.57;;;35.60;26.00;;;;;;5036472;28;20063;-78
2021/08/28 10:01:07;;;;;;;1.65;0.73;;;33.80;27.20;;;;;;5036329;28;20379;-79
2021/08/28 10:03:33;;;;;;;1.23;0.70;;;32.30;28.10;;;;;;5043087;28;20107;-80
2021/08/28 10:06:00;;;;;;;1.90;0.70;;;32.30;29.40;;;;;;5055991;28;20108;-79
2021/08/28 10:08:27;;;;;;;1.73;0.88;;;32.00;29.90;;;;;;5050054;28;20037;-80
2021/08/28 10:10:55;;;;;;;1.58;0.60;;;31.40;30.30;;;;;;5044289;28;20025;-78
2021/08/28 10:13:22;;;;;;;2.22;0.70;;;30.60;31.40;;;;;;5045084;28;20464;-89
2021/08/28 10:15:49;;;;;;;2.13;0.63;;;29.80;32.70;;;;;;5042019;28;20495;-84
2021/08/28 10:18:15;;;;;;;2.38;0.82;;;29.30;33.20;;;;;;5036754;28;20032;-90
2021/08/28 10:20:42;;;;;;;1.55;0.60;;;29.00;34.60;;;;;;5034599;28;20040;-90
2021/08/28 10:23:09;;;;;;;2.05;0.90;;;28.80;35.20;;;;;;5035276;28;20140;-89
2021/08/28 10:25:43;;;;;;;2.08;0.75;;;28.60;35.40;;;;;;5036455;28;20025;-91
2021/08/28 10:28:11;;;;;;;1.70;0.60;;;28.40;35.50;;;;;;5034988;28;20104;-89
2021/08/28 10:30:37;;;;;;;3.70;0.82;;;28.10;36.70;;;;;;5035323;28;20463;-91
2021/08/28 10:33:03;;;;;;;1.55;0.65;;;27.90;36.80;;;;;;5055858;28;20036;-90
2021/08/28 10:35:29;;;;;;;1.95;0.73;;;27.30;37.50;;;;;;5056352;28;20088;-90
2021/08/28 10:37:55;;;;;;;3.17;1.10;;;27.00;37.70;;;;;;5053972;28;20503;-89
2021/08/28 10:40:24;;;;;;;1.80;0.73;;;27.00;38.30;;;;;;5043374;28;20494;-92
2021/08/28 10:42:52;;;;;;;1.75;0.60;;;27.00;38.60;;;;;;5074458;28;20384;-91
2021/08/28 10:45:28;;;;;;;2.47;0.85;;;26.90;39.20;;;;;;5076234;28;20052;-89
2021/08/28 10:47:59;;;;;;;1.75;0.63;;;26.80;39.30;;;;;;5061811;28;20112;-89
2021/08/28 10:50:25;;;;;;;2.80;0.88;;;26.40;39.10;;;;;;5035463;28;20034;-89
2021/08/28 10:52:51;;;;;;;3.08;1.13;;;26.40;39.50;;;;;;5035994;28;20392;-89
2021/08/28 10:55:17;;;;;;;1.48;0.60;;;26.50;39.90;;;;;;5035656;28;20045;-88
2021/08/28 10:57:43;;;;;;;1.95;0.60;;;26.70;39.50;;;;;;5034403;28;20025;-88
2021/08/28 11:00:17;;;;;;;2.47;0.73;;;26.60;39.80;;;;;;5035736;28;20026;-89
2021/08/28 11:02:57;;;;;;;1.48;0.47;;;26.70;40.20;;;;;;5036701;28;20036;-89
2021/08/28 11:05:28;;;;;;;3.63;0.80;;;26.60;40.10;;;;;;5034607;28;20029;-88
2021/08/28 11:08:17;;;;;;;1.80;0.60;;;26.30;39.80;;;;;;5035849;28;20488;-89
2021/08/28 11:10:43;;;;;;;2.63;0.63;;;26.10;40.20;;;;;;5034302;28;20439;-88
2021/08/28 11:13:09;;;;;;;1.45;0.68;;;25.80;40.20;;;;;;5041915;28;20032;-88
2021/08/28 11:15:34;;;;;;;1.92;0.63;;;25.80;40.30;;;;;;5055494;28;20029;-89
2021/08/28 11:18:23;;;;;;;1.67;0.68;;;25.70;40.80;;;;;;5055636;28;20025;-89
2021/08/28 11:20:52;;;;;;;1.20;0.40;;;25.70;39.60;;;;;;5050055;28;20037;-87
2021/08/28 11:23:20;;;;;;;1.58;0.52;;;25.60;38.80;;;;;;5035607;28;20506;-87
2021/08/28 11:25:48;;;;;;;1.13;0.50;;;25.60;38.60;;;;;;5035501;28;20033;-89
2021/08/28 11:28:15;;;;;;;1.77;0.50;;;25.50;40.50;;;;;;5033865;28;20025;-88
2021/08/28 11:30:46;;;;;;;1.95;0.85;;;25.70;40.30;;;;;;5055094;28;20025;-89
2021/08/28 11:33:24;;;;;;;2.17;0.70;;;25.80;40.90;;;;;;5049156;28;20104;-86
2021/08/28 11:36:19;;;;;;;1.13;0.40;;;26.00;38.50;;;;;;5049472;28;20040;-88
2021/08/28 11:38:53;;;;;;;1.80;0.60;;;26.10;38.00;;;;;;5035447;28;20025;-87
2021/08/28 11:41:20;;;;;;;2.47;0.80;;;26.10;39.00;;;;;;5057702;28;20509;-88
2021/08/28 11:43:46;;;;;;;2.78;0.82;;;26.20;39.80;;;;;;5073965;28;20055;-88
2021/08/28 11:46:25;;;;;;;1.90;0.88;;;26.40;39.50;;;;;;5043483;28;20392;-87
2021/08/28 11:48:52;;;;;;;2.40;0.70;;;26.40;39.70;;;;;;5046229;28;20025;-88
2021/08/28 11:51:23;;;;;;;1.92;0.82;;;26.10;39.30;;;;;;5034052;28;20034;-90
2021/08/28 11:53:53;;;;;;;2.50;0.90;;;25.80;40.40;;;;;;5035382;28;20190;-90
2021/08/28 11:56:21;;;;;;;2.75;1.15;;;25.50;40.70;;;;;;5041057;28;20032;-89
2021/08/28 11:59:00;;;;;;;2.75;0.55;;;25.50;40.40;;;;;;5055159;28;20037;-88
2021/08/28 12:01:28;;;;;;;1.92;0.80;;;25.60;40.20;;;;;;5036648;28;20025;-89
2021/08/28 12:03:55;;;;;;;2.10;0.50;;;25.50;38.80;;;;;;5038562;28;20381;-88
2021/08/28 12:06:24;;;;;;;2.70;0.60;;;25.40;38.40;;;;;;5038898;28;20026;-88
2021/08/28 12:08:50;;;;;;;2.15;0.90;;;25.70;39.00;;;;;;5038596;28;20021;-89
2021/08/28 12:11:16;;;;;;;1.52;0.57;;;25.60;39.70;;;;;;5040636;28;20018;-90
2021/08/28 12:14:01;;;;;;;1.60;0.50;;;25.50;39.60;;;;;;5052672;28;20024;-88
2021/08/28 12:16:30;;;;;;;0.93;0.50;;;25.70;38.40;;;;;;5038117;28;20455;-80
2021/08/28 12:18:56;;;;;;;1.65;0.57;;;25.90;38.60;;;;;;5057804;28;20032;-85
2021/08/28 12:21:22;;;;;;;0.88;0.40;;;25.80;38.60;;;;;;5049766;28;20090;-81
2021/08/28 12:23:48;;;;;;;2.83;0.50;;;25.70;38.20;;;;;;5047713;28;20025;-77
2021/08/28 12:26:15;;;;;;;1.05;0.40;;;25.70;38.30;;;;;;5046882;28;20028;-77
2021/08/28 12:28:41;;;;;;;2.45;0.60;;;25.40;38.00;;;;;;5044034;28;20084;-78
2021/08/28 12:31:07;;;;;;;1.67;0.85;;;25.60;38.60;;;;;;5047425;28;20373;-77
2021/08/28 12:33:32;;;;;;;1.67;0.50;;;25.90;38.90;;;;;;5044233;28;20077;-77
2021/08/28 12:35:58;;;;;;;1.35;0.50;;;26.00;38.40;;;;;;5045023;28;20021;-77
2021/08/28 12:38:30;;;;;;;1.33;0.60;;;26.20;38.60;;;;;;5037750;28;20037;-78
2021/08/28 12:40:57;;;;;;;3.13;1.10;;;26.30;38.40;;;;;;5043929;28;20057;-78
2021/08/28 12:43:24;;;;;;;2.05;0.82;;;26.30;38.10;;;;;;5045018;28;20030;-78
2021/08/28 12:45:52;;;;;;;2.55;1.10;;;26.10;38.70;;;;;;5048246;28;20570;-77
2021/08/28 12:48:18;;;;;;;2.00;0.75;;;25.90;38.50;;;;;;5048798;28;20475;-78
2021/08/28 12:50:44;;;;;;;1.50;0.35;;;25.80;38.60;;;;;;5046679;28;20052;-78
2021/08/28 12:53:09;;;;;;;1.63;0.52;;;25.80;39.70;;;;;;5044356;28;20036;-81